Time;durP1;ratioP1;P1;durP2;ratioP2;P2;SDS_P1;SDS_P2;PMS_P1;PMS_P2;Temp;Humidity;BMP_temperature;BMP_pressure;BME280_temperature;BME280_humidity;BME280_pressure;Samples;Min_cycle;Max_cycle;Signal;HPM_P1;HPM_P2
2022/03/11 00:00:34;;;;;;;7.22;3.80;;;;;;;-6.52;59.78;95502.78;5073268;28;20040;-72
2022/03/11 00:02:59;;;;;;;6.50;3.72;;;;;;;-6.50;59.63;95512.88;5071987;28;20474;-72
2022/03/11 00:05:25;;;;;;;5.85;3.72;;;;;;;-6.51;59.68;95506.16;5073141;28;20044;-72
2022/03/11 00:07:50;;;;;;;7.07;3.80;;;;;;;-6.48;60.28;95503.59;5073209;28;20028;-73
2022/03/11 00:10:16;;;;;;;6.43;3.70;;;;;;;-6.52;60.50;95507.84;5055108;28;20469;-72
2022/03/11 00:12:41;;;;;;;4.97;3.50;;;;;;;-6.66;60.51;95483.47;5055302;28;20024;-72
2022/03/11 00:15:07;;;;;;;5.82;3.85;;;;;;;-6.49;60.42;95501.06;5072755;28;20032;-73
2022/03/11 00:17:33;;;;;;;12.88;6.40;;;;;;;-6.56;60.39;95503.66;5092186;28;20079;-73
2022/03/11 00:19:59;;;;;;;7.28;4.80;;;;;;;-6.61;60.54;95507.03;5075202;28;20032;-71
2022/03/11 00:22:24;;;;;;;5.55;4.00;;;;;;;-6.71;60.02;95510.47;5074856;28;20097;-73
2022/03/11 00:24:50;;;;;;;6.35;3.80;;;;;;;-6.80;59.73;95511.34;5087929;28;20037;-73
2022/03/11 00:27:15;;;;;;;6.88;4.03;;;;;;;-6.89;59.84;95503.81;5050195;28;20028;-73
2022/03/11 00:29:40;;;;;;;6.70;4.05;;;;;;;-6.93;60.14;95503.00;5087355;28;20496;-72
2022/03/11 00:32:06;;;;;;;5.30;3.75;;;;;;;-6.97;60.15;95493.72;5091023;28;20028;-72
2022/03/11 00:34:32;;;;;;;4.97;3.25;;;;;;;-6.93;60.07;95490.38;5071657;28;20241;-72
2022/03/11 00:36:58;;;;;;;5.53;3.53;;;;;;;-6.99;60.11;95491.22;5072496;28;20024;-73
2022/03/11 00:39:24;;;;;;;5.70;3.78;;;;;;;-7.08;60.27;95467.69;5072643;28;20040;-72
2022/03/11 00:41:49;;;;;;;5.03;3.75;;;;;;;-6.99;60.19;95487.88;5071296;28;20075;-72
2022/03/11 00:44:15;;;;;;;5.80;3.80;;;;;;;-6.94;60.18;95487.84;5054876;28;20041;-72
2022/03/11 00:46:41;;;;;;;5.25;3.53;;;;;;;-6.91;59.95;95492.88;5091392;28;20755;-73
2022/03/11 00:49:06;;;;;;;6.85;3.47;;;;;;;-6.92;60.33;95484.47;5092934;28;20067;-72
2022/03/11 00:51:33;;;;;;;5.85;3.92;;;;;;;-6.94;60.15;95487.84;5074377;28;20040;-72
2022/03/11 00:53:58;;;;;;;5.20;3.80;;;;;;;-6.96;60.42;95487.84;5091321;28;20471;-72
2022/03/11 00:56:24;;;;;;;6.25;3.78;;;;;;;-6.90;60.21;95489.53;5091200;28;20024;-72
2022/03/11 00:58:49;;;;;;;7.18;3.60;;;;;;;-6.96;60.53;95485.34;5074365;28;20028;-72
2022/03/11 01:01:15;;;;;;;5.95;4.00;;;;;;;-6.99;60.29;95488.72;5090193;28;20092;-73
2022/03/11 01:03:40;;;;;;;5.32;3.58;;;;;;;-7.07;60.09;95487.91;5091625;28;20444;-73
2022/03/11 01:06:06;;;;;;;4.97;3.50;;;;;;;-7.32;60.30;95471.16;5057369;28;20418;-72
2022/03/11 01:08:31;;;;;;;5.35;3.60;;;;;;;-7.17;59.78;95485.41;5092460;28;20440;-72
2022/03/11 01:10:56;;;;;;;5.93;3.65;;;;;;;-7.13;59.99;95487.94;5090933;28;20032;-72
2022/03/11 01:13:22;;;;;;;6.47;3.50;;;;;;;-7.17;59.56;95485.41;5092171;28;20028;-73
2022/03/11 01:15:47;;;;;;;9.45;5.00;;;;;;;-7.16;59.33;95482.03;5092010;28;20035;-73
2022/03/11 01:18:13;;;;;;;8.88;5.00;;;;;;;-7.17;59.30;95492.97;5092202;28;20036;-72
2022/03/11 01:20:38;;;;;;;7.65;4.10;;;;;;;-7.20;59.47;95492.16;5092064;28;20024;-73
2022/03/11 01:23:04;;;;;;;6.03;4.07;;;;;;;-7.20;59.66;95482.03;5071013;28;20036;-72
2022/03/11 01:25:29;;;;;;;6.90;4.05;;;;;;;-7.25;60.09;95486.25;5071610;28;20028;-73
2022/03/11 01:27:54;;;;;;;5.45;3.47;;;;;;;-7.25;60.25;95487.94;5071709;28;20021;-72
2022/03/11 01:30:21;;;;;;;5.80;3.67;;;;;;;-7.23;60.62;95486.28;5070413;28;20456;-72
2022/03/11 01:32:46;;;;;;;5.75;3.75;;;;;;;-7.29;60.23;95496.41;5070296;28;20052;-73
2022/03/11 01:35:12;;;;;;;6.63;3.67;;;;;;;-7.39;60.12;95472.84;5069822;28;20533;-73
2022/03/11 01:37:37;;;;;;;6.13;3.72;;;;;;;-7.42;59.93;95485.47;5077693;28;20418;-72
2022/03/11 01:40:03;;;;;;;4.70;3.70;;;;;;;-7.49;60.10;95488.88;5073580;28;20074;-73
2022/03/11 01:42:29;;;;;;;6.10;3.83;;;;;;;-7.49;60.38;95492.25;5079275;28;20024;-73
2022/03/11 01:44:54;;;;;;;6.13;3.72;;;;;;;-7.46;60.09;95498.97;5070135;28;20043;-73
2022/03/11 01:47:20;;;;;;;5.03;3.53;;;;;;;-7.49;59.63;95501.50;5071210;28;20041;-72
2022/03/11 01:49:45;;;;;;;6.90;3.78;;;;;;;-7.59;59.86;95500.66;5071267;28;20036;-73
2022/03/11 01:52:11;;;;;;;5.22;3.55;;;;;;;-7.75;60.18;95488.91;5071091;28;20025;-73
2022/03/11 01:54:39;;;;;;;6.45;3.55;;;;;;;-7.69;59.88;95497.34;5063419;28;20020;-73
2022/03/11 01:57:05;;;;;;;5.65;3.50;;;;;;;-7.71;60.12;95493.13;5073446;28;20036;-72
2022/03/11 01:59:30;;;;;;;5.30;3.55;;;;;;;-7.78;59.59;95489.75;5090409;28;20066;-73
2022/03/11 02:01:56;;;;;;;6.38;3.72;;;;;;;-7.76;59.97;95495.63;5091238;28;20024;-73
2022/03/11 02:04:21;;;;;;;6.70;3.63;;;;;;;-7.77;60.11;95499.03;5073202;28;20035;-72
2022/03/11 02:06:49;;;;;;;6.25;3.90;;;;;;;-7.72;60.11;95489.72;5089955;28;20478;-72
2022/03/11 02:09:14;;;;;;;6.38;3.70;;;;;;;-7.76;60.26;95499.84;5091075;28;20024;-73
2022/03/11 02:11:39;;;;;;;6.00;4.07;;;;;;;-7.74;60.11;95498.19;5073140;28;20043;-72
2022/03/11 02:14:05;;;;;;;5.32;3.80;;;;;;;-7.78;60.18;95493.97;5091401;28;20028;-73
2022/03/11 02:16:31;;;;;;;5.60;3.35;;;;;;;-7.81;60.41;95496.50;5072285;28;20480;-73
2022/03/11 02:18:57;;;;;;;7.35;4.57;;;;;;;-7.87;60.46;95489.78;5090069;28;20194;-72
2022/03/11 02:21:23;;;;;;;5.07;3.78;;;;;;;-7.89;60.58;95488.91;5072907;28;20410;-72
2022/03/11 02:23:52;;;;;;;6.43;3.78;;;;;;;-7.84;60.94;95497.34;5072982;28;20085;-73
2022/03/11 02:26:19;;;;;;;6.93;4.35;;;;;;;-7.91;60.72;95498.16;5090895;28;20039;-72
2022/03/11 02:28:45;;;;;;;6.28;4.10;;;;;;;-7.95;60.77;95499.03;5073183;28;20035;-73
2022/03/11 02:31:10;;;;;;;5.68;3.72;;;;;;;-8.03;60.27;95498.19;5078774;28;20033;-72
2022/03/11 02:33:36;;;;;;;5.72;3.70;;;;;;;-8.07;60.33;95488.94;5069507;28;20029;-73
2022/03/11 02:36:01;;;;;;;7.35;4.40;;;;;;;-8.18;60.56;95497.34;5069416;28;20049;-72
2022/03/11 02:38:27;;;;;;;5.70;3.97;;;;;;;-8.21;60.61;95496.50;5077737;28;20479;-73
2022/03/11 02:40:53;;;;;;;6.57;3.92;;;;;;;-8.19;60.61;95500.72;5047319;28;20032;-73
2022/03/11 02:43:18;;;;;;;6.45;4.32;;;;;;;-8.23;60.88;95505.75;5086651;28;20406;-73
2022/03/11 02:45:44;;;;;;;6.60;4.15;;;;;;;-8.29;61.13;95500.72;5087006;28;20039;-72
2022/03/11 02:48:09;;;;;;;6.07;3.92;;;;;;;-8.31;61.36;95500.69;5069446;28;20028;-73
2022/03/11 02:50:34;;;;;;;8.20;4.03;;;;;;;-8.29;61.49;95501.53;5069348;28;20036;-73
2022/03/11 02:53:00;;;;;;;6.07;4.15;;;;;;;-8.31;61.73;95500.69;5070615;28;20025;-73
2022/03/11 02:55:25;;;;;;;9.68;4.55;;;;;;;-8.36;61.91;95499.84;5069189;28;20033;-72
2022/03/11 02:57:51;;;;;;;7.43;4.05;;;;;;;-8.33;61.86;95509.91;5071015;28;20087;-73
2022/03/11 03:00:16;;;;;;;7.35;4.50;;;;;;;-8.34;61.98;95511.59;5090635;28;20077;-73
2022/03/11 03:02:42;;;;;;;8.15;3.92;;;;;;;-8.35;62.17;95511.63;5089250;28;20086;-73
2022/03/11 03:05:08;;;;;;;7.18;4.38;;;;;;;-8.39;62.39;95515.81;5090614;28;20442;-73
2022/03/11 03:07:33;;;;;;;6.70;4.80;;;;;;;-8.38;62.59;95504.91;5089364;28;20028;-73
2022/03/11 03:09:58;;;;;;;8.30;4.75;;;;;;;-8.37;62.17;95498.16;5089408;28;20029;-73
2022/03/11 03:12:25;;;;;;;6.05;4.05;;;;;;;-8.33;62.07;95505.75;5072492;28;20032;-72
2022/03/11 03:14:50;;;;;;;6.13;4.05;;;;;;;-8.40;61.73;95515.84;5072570;28;20058;-73
2022/03/11 03:17:18;;;;;;;6.75;4.32;;;;;;;-8.52;62.29;95505.72;5089245;28;20490;-72
2022/03/11 03:19:43;;;;;;;7.50;4.20;;;;;;;-8.59;62.24;95508.25;5089500;28;20024;-72
2022/03/11 03:22:09;;;;;;;6.70;4.13;;;;;;;-8.61;61.99;95512.47;5089207;28;20469;-73
2022/03/11 03:24:34;;;;;;;5.18;3.63;;;;;;;-8.55;62.28;95509.94;5089313;28;20024;-72
2022/03/11 03:26:59;;;;;;;6.10;4.18;;;;;;;-8.70;62.44;95502.34;5090177;28;20379;-72
2022/03/11 03:29:25;;;;;;;5.43;4.13;;;;;;;-8.62;62.50;95520.00;5093143;28;20089;-72
2022/03/11 03:31:57;;;;;;;8.63;4.50;;;;;;;-8.65;62.38;95514.97;5092905;28;20478;-72
2022/03/11 03:34:24;;;;;;;7.40;4.05;;;;;;;-8.62;62.60;95505.72;5074988;28;20036;-73
2022/03/11 03:36:49;;;;;;;6.10;4.55;;;;;;;-8.67;62.62;95512.41;5073706;28;20029;-72
2022/03/11 03:39:15;;;;;;;7.57;3.80;;;;;;;-8.75;62.65;95511.56;5072395;28;20105;-72
2022/03/11 03:41:40;;;;;;;5.72;4.00;;;;;;;-8.75;62.83;95511.56;5073036;28;20039;-72
2022/03/11 03:44:06;;;;;;;7.38;4.47;;;;;;;-8.76;62.82;95517.44;5071213;28;20039;-72
2022/03/11 03:46:31;;;;;;;10.10;4.88;;;;;;;-8.76;63.14;95512.41;5081983;28;20048;-72
2022/03/11 03:48:58;;;;;;;6.30;3.95;;;;;;;-8.75;63.65;95519.13;5055721;28;20407;-73
2022/03/11 03:51:23;;;;;;;6.72;4.40;;;;;;;-8.76;63.03;95514.91;5091961;28;20039;-73
2022/03/11 03:53:49;;;;;;;8.70;4.70;;;;;;;-8.82;63.17;95520.78;5093900;28;20036;-72
2022/03/11 03:56:14;;;;;;;6.00;4.25;;;;;;;-8.87;63.18;95514.88;5093536;28;20024;-72
2022/03/11 03:58:39;;;;;;;6.22;3.78;;;;;;;-8.79;63.40;95522.47;5093893;28;20149;-72
2022/03/11 04:01:06;;;;;;;7.13;4.32;;;;;;;-8.72;63.13;95518.28;5092356;28;20107;-72
2022/03/11 04:03:31;;;;;;;6.50;4.18;;;;;;;-8.75;63.25;95519.13;5074035;28;20170;-72
2022/03/11 04:05:57;;;;;;;7.78;4.35;;;;;;;-8.73;63.34;95522.47;5055159;28;20025;-72
2022/03/11 04:08:22;;;;;;;7.45;3.88;;;;;;;-8.71;63.44;95522.50;5073351;28;20463;-72
2022/03/11 04:10:48;;;;;;;7.28;4.43;;;;;;;-8.74;62.99;95525.00;5071794;28;20476;-72
2022/03/11 04:13:14;;;;;;;7.35;4.45;;;;;;;-8.81;63.08;95530.00;5055147;28;20036;-73
2022/03/11 04:15:39;;;;;;;7.50;4.60;;;;;;;-8.89;62.90;95530.81;5073069;28;20400;-72
2022/03/11 04:18:04;;;;;;;7.20;4.53;;;;;;;-8.93;63.20;95522.44;5071825;28;20027;-72
2022/03/11 04:20:30;;;;;;;8.32;5.18;;;;;;;-8.82;63.17;95540.09;5071706;28;20035;-72
2022/03/11 04:22:55;;;;;;;7.20;3.75;;;;;;;-8.80;63.23;95543.47;5071787;28;20040;-72
2022/03/11 04:25:21;;;;;;;8.70;5.78;;;;;;;-8.85;63.48;95538.41;5072887;28;20518;-72
2022/03/11 04:27:46;;;;;;;8.15;5.18;;;;;;;-8.89;63.61;95550.97;5071754;28;20025;-72
2022/03/11 04:30:12;;;;;;;10.23;5.50;;;;;;;-8.89;63.78;95554.31;5071501;28;20036;-72
2022/03/11 04:32:37;;;;;;;12.85;6.47;;;;;;;-8.90;62.96;95550.13;5071465;28;20028;-73
2022/03/11 04:35:03;;;;;;;11.73;6.60;;;;;;;-8.95;63.56;95550.97;5054594;28;20033;-72
2022/03/11 04:37:28;;;;;;;11.80;5.50;;;;;;;-8.93;62.96;95549.28;5071244;28;20016;-73
2022/03/11 04:39:54;;;;;;;11.68;6.35;;;;;;;-8.91;63.13;95555.16;5087698;28;20128;-72
2022/03/11 04:42:19;;;;;;;9.27;5.40;;;;;;;-8.95;63.24;95556.81;5092742;28;20551;-72
2022/03/11 04:44:45;;;;;;;8.10;5.28;;;;;;;-9.02;63.46;95555.13;5092850;28;20050;-72
2022/03/11 04:47:10;;;;;;;9.25;5.60;;;;;;;-9.11;63.41;95533.28;5090417;28;20032;-72
2022/03/11 04:49:36;;;;;;;8.52;5.70;;;;;;;-8.96;63.67;95559.34;5086518;28;20104;-72
2022/03/11 04:52:01;;;;;;;12.73;6.53;;;;;;;-8.93;63.45;95552.66;5089606;28;20044;-71
2022/03/11 04:54:27;;;;;;;11.90;5.82;;;;;;;-8.98;63.73;95538.34;5049764;28;20055;-72
2022/03/11 04:56:52;;;;;;;12.18;5.07;;;;;;;-8.87;63.58;95551.81;5054239;28;20033;-72
2022/03/11 04:59:17;;;;;;;11.68;5.05;;;;;;;-8.85;63.14;95553.53;5072527;28;20028;-72
2022/03/11 05:01:43;;;;;;;8.27;5.00;;;;;;;-8.84;63.02;95549.31;5091190;28;20035;-72
2022/03/11 05:04:08;;;;;;;8.90;5.60;;;;;;;-8.83;62.75;95561.94;5092713;28;20039;-72
2022/03/11 05:06:34;;;;;;;7.05;4.95;;;;;;;-8.89;62.46;95541.75;5091078;28;20090;-72
2022/03/11 05:08:59;;;;;;;8.00;5.15;;;;;;;-8.91;62.64;95560.19;5074288;28;20036;-72
2022/03/11 05:11:24;;;;;;;8.20;4.93;;;;;;;-9.00;62.70;95551.78;5088520;28;20031;-72
2022/03/11 05:13:50;;;;;;;7.45;4.63;;;;;;;-8.95;62.58;95554.31;5062081;28;20024;-72
2022/03/11 05:16:15;;;;;;;7.90;4.05;;;;;;;-8.89;62.57;95571.13;5070491;28;20090;-72
2022/03/11 05:18:41;;;;;;;8.70;4.88;;;;;;;-8.95;63.14;95576.13;5076142;28;20020;-72
2022/03/11 05:21:06;;;;;;;8.40;4.63;;;;;;;-8.93;62.65;95575.31;5090370;28;20028;-72
2022/03/11 05:23:32;;;;;;;6.30;4.13;;;;;;;-8.91;63.34;95577.81;5092203;28;20040;-72
2022/03/11 05:25:57;;;;;;;7.45;5.00;;;;;;;-8.89;63.07;95581.19;5090421;28;20039;-72
2022/03/11 05:28:22;;;;;;;7.03;4.00;;;;;;;-8.84;63.14;95575.34;5079885;28;20055;-73
2022/03/11 05:30:48;;;;;;;6.50;4.90;;;;;;;-8.75;63.22;95572.00;5071538;28;20032;-74
2022/03/11 05:33:13;;;;;;;6.53;4.10;;;;;;;-8.66;63.00;95587.19;5072109;28;20020;-72
2022/03/11 05:35:41;;;;;;;9.05;5.10;;;;;;;-8.78;63.13;95585.44;5054619;28;20032;-71
2022/03/11 05:38:06;;;;;;;9.30;5.28;;;;;;;-8.72;62.52;95583.78;5082453;28;20024;-72
2022/03/11 05:40:31;;;;;;;8.90;5.15;;;;;;;-8.71;62.34;95586.31;5069873;28;20057;-71
2022/03/11 05:42:57;;;;;;;8.43;4.35;;;;;;;-8.66;62.17;95592.22;5071072;28;20035;-72
2022/03/11 05:45:22;;;;;;;9.00;5.25;;;;;;;-8.68;62.02;95591.38;5089574;28;20043;-72
2022/03/11 05:47:48;;;;;;;7.38;4.50;;;;;;;-8.66;62.71;95594.75;5072474;28;20036;-72
2022/03/11 05:50:14;;;;;;;8.93;4.53;;;;;;;-8.57;61.96;95584.69;5052644;28;20029;-72
2022/03/11 05:52:40;;;;;;;9.90;5.43;;;;;;;-8.50;62.50;95593.09;5070927;28;20035;-72
2022/03/11 05:55:05;;;;;;;7.28;4.80;;;;;;;-8.49;62.36;95583.88;5053260;28;20029;-73
2022/03/11 05:57:31;;;;;;;9.65;4.53;;;;;;;-8.35;62.46;95594.81;5069866;28;20138;-72
2022/03/11 05:59:56;;;;;;;8.00;4.50;;;;;;;-8.32;62.30;95593.13;5053330;28;20090;-72
2022/03/11 06:02:22;;;;;;;8.77;4.70;;;;;;;-8.20;61.66;95589.78;5067229;28;20073;-72
2022/03/11 06:04:47;;;;;;;7.80;5.05;;;;;;;-8.22;61.60;95591.44;5072319;28;20514;-72
2022/03/11 06:07:13;;;;;;;7.60;4.30;;;;;;;-8.12;60.98;95598.22;5080436;28;20024;-72
2022/03/11 06:09:38;;;;;;;6.55;4.72;;;;;;;-7.99;60.65;95583.09;5090169;28;20024;-72
2022/03/11 06:12:04;;;;;;;7.90;5.30;;;;;;;-7.47;59.51;95588.13;5073029;28;20032;-72
2022/03/11 06:14:30;;;;;;;8.15;4.90;;;;;;;-7.09;58.17;95594.84;5073192;28;20126;-72
2022/03/11 06:16:55;;;;;;;7.68;4.75;;;;;;;-7.22;58.20;95601.56;5073046;28;20499;-72
2022/03/11 06:19:20;;;;;;;7.15;4.57;;;;;;;-7.22;58.23;95604.09;5078858;28;20028;-72
2022/03/11 06:21:46;;;;;;;8.05;4.97;;;;;;;-7.16;58.49;95603.25;5063598;28;20036;-72
2022/03/11 06:24:11;;;;;;;7.40;4.82;;;;;;;-7.05;58.63;95602.41;5069646;28;20043;-72
2022/03/11 06:26:37;;;;;;;7.47;4.95;;;;;;;-6.99;58.73;95601.56;5063402;28;20029;-72
2022/03/11 06:29:03;;;;;;;7.93;4.72;;;;;;;-6.81;58.57;95600.66;5071228;28;20466;-72
2022/03/11 06:31:28;;;;;;;6.50;4.03;;;;;;;-6.56;58.10;95596.34;5071596;28;20113;-72
2022/03/11 06:33:54;;;;;;;7.15;4.75;;;;;;;-6.25;58.00;95613.91;5070971;28;20474;-72
2022/03/11 06:36:20;;;;;;;8.38;4.53;;;;;;;-6.13;57.64;95619.75;5071673;28;20016;-72
2022/03/11 06:38:45;;;;;;;6.60;4.13;;;;;;;-6.03;57.22;95615.47;5070833;28;20087;-72
2022/03/11 06:41:12;;;;;;;8.15;4.95;;;;;;;-5.89;57.49;95615.34;5078595;28;20055;-73
2022/03/11 06:43:38;;;;;;;7.70;5.05;;;;;;;-5.84;57.34;95609.41;5091058;28;20482;-72
2022/03/11 06:46:03;;;;;;;6.68;4.20;;;;;;;-5.65;57.45;95620.25;5087465;28;20040;-73
2022/03/11 06:48:28;;;;;;;7.80;4.57;;;;;;;-5.52;57.60;95620.16;5082202;28;20391;-72
2022/03/11 06:50:54;;;;;;;8.60;5.40;;;;;;;-5.36;57.97;95620.88;5065558;28;20043;-72
2022/03/11 06:53:25;;;;;;;10.82;4.65;;;;;;;-5.24;56.56;95608.09;5047265;28;20036;-73
2022/03/11 06:55:51;;;;;;;8.82;5.22;;;;;;;-5.12;56.41;95620.69;5074816;28;20043;-72
2022/03/11 06:58:17;;;;;;;9.70;5.53;;;;;;;-5.00;55.23;95615.47;5081721;28;20410;-72
2022/03/11 07:00:42;;;;;;;8.35;5.47;;;;;;;-4.99;56.22;95607.00;5076596;28;20033;-72
2022/03/11 07:03:07;;;;;;;9.95;6.00;;;;;;;-4.93;57.03;95621.34;5079844;28;20032;-72
2022/03/11 07:05:33;;;;;;;11.60;6.22;;;;;;;-4.88;56.95;95627.19;5086030;28;20032;-72
2022/03/11 07:07:58;;;;;;;8.45;5.97;;;;;;;-4.84;56.66;95625.47;5061727;28;20020;-72
2022/03/11 07:10:24;;;;;;;8.27;5.28;;;;;;;-4.77;56.15;95637.22;5079997;28;20040;-72
2022/03/11 07:12:49;;;;;;;9.73;6.55;;;;;;;-4.65;55.96;95641.31;5082279;28;20032;-75
2022/03/11 07:15:15;;;;;;;10.48;7.05;;;;;;;-4.55;56.03;95633.59;5076198;28;20434;-76
2022/03/11 07:17:40;;;;;;;9.10;6.88;;;;;;;-4.59;56.24;95636.22;5079625;28;20043;-74
2022/03/11 07:20:06;;;;;;;11.40;7.05;;;;;;;-4.45;56.35;95633.50;5077281;28;20051;-75
2022/03/11 07:22:32;;;;;;;13.88;7.38;;;;;;;-4.44;56.45;95625.88;5067385;28;20031;-72
2022/03/11 07:24:58;;;;;;;11.20;7.53;;;;;;;-4.31;55.48;95642.63;5068641;28;20028;-72
2022/03/11 07:27:24;;;;;;;11.18;7.20;;;;;;;-4.25;55.71;95638.34;5078441;28;20023;-73
2022/03/11 07:29:50;;;;;;;11.10;7.45;;;;;;;-4.14;55.12;95634.81;5078354;28;20415;-72
2022/03/11 07:32:17;;;;;;;12.00;7.22;;;;;;;-3.99;55.43;95626.16;5078590;28;20028;-72
2022/03/11 07:34:42;;;;;;;19.35;9.57;;;;;;;-3.76;55.15;95636.00;5082521;28;20059;-71
2022/03/11 07:37:11;;;;;;;14.52;8.55;;;;;;;-3.55;53.24;95628.94;5055284;28;20064;-71
2022/03/11 07:39:41;;;;;;;15.68;9.90;;;;;;;-3.38;54.09;95632.03;5072170;28;20102;-72
2022/03/11 07:42:06;;;;;;;16.48;8.77;;;;;;;-3.17;52.97;95633.41;5081342;28;20146;-72
2022/03/11 07:44:33;;;;;;;10.73;7.70;;;;;;;-2.88;53.69;95622.75;5075708;28;20024;-71
2022/03/11 07:46:58;;;;;;;8.50;5.72;;;;;;;-2.56;53.13;95622.16;5074860;28;20040;-72
2022/03/11 07:49:24;;;;;;;7.30;4.75;;;;;;;-2.30;52.50;95626.75;5069948;28;20085;-73
2022/03/11 07:51:50;;;;;;;8.52;5.28;;;;;;;-2.03;50.14;95621.97;5063932;28;20426;-72
2022/03/11 07:54:15;;;;;;;7.28;5.40;;;;;;;-1.90;49.41;95618.28;5082805;28;20024;-73
2022/03/11 07:56:41;;;;;;;8.63;5.90;;;;;;;-1.81;48.54;95625.75;5079458;28;20040;-71
2022/03/11 07:59:06;;;;;;;8.35;6.20;;;;;;;-1.77;49.08;95623.94;5080561;28;20490;-71
2022/03/11 08:01:32;;;;;;;10.18;6.78;;;;;;;-1.67;48.07;95628.00;5081481;28;20043;-72
2022/03/11 08:03:58;;;;;;;10.68;7.50;;;;;;;-1.70;48.29;95625.50;5068313;28;20630;-72
2022/03/11 08:06:23;;;;;;;12.85;8.02;;;;;;;-1.77;48.42;95621.41;5082062;28;20085;-73
2022/03/11 08:08:49;;;;;;;16.90;11.18;;;;;;;-1.87;49.26;95625.84;5066673;28;20032;-72
2022/03/11 08:11:15;;;;;;;14.25;8.48;;;;;;;-2.00;48.21;95624.44;5082132;28;20020;-72
2022/03/11 08:13:41;;;;;;;12.95;8.90;;;;;;;-2.05;50.17;95631.34;5077263;28;20068;-72
2022/03/11 08:16:07;;;;;;;15.40;10.10;;;;;;;-2.06;49.59;95632.22;5071779;28;20039;-71
2022/03/11 08:18:33;;;;;;;13.43;9.32;;;;;;;-2.14;50.03;95626.44;5092311;28;20081;-71
2022/03/11 08:20:58;;;;;;;18.42;9.60;;;;;;;-2.16;49.61;95628.19;5054667;28;20032;-72
2022/03/11 08:23:23;;;;;;;13.10;8.82;;;;;;;-2.18;49.63;95625.66;5079164;28;20016;-72
2022/03/11 08:25:49;;;;;;;15.80;9.93;;;;;;;-2.09;49.84;95627.16;5089960;28;20478;-71
2022/03/11 08:28:15;;;;;;;15.20;10.45;;;;;;;-2.03;49.38;95629.63;5082554;28;20032;-72
2022/03/11 08:30:41;;;;;;;20.63;12.80;;;;;;;-1.85;49.49;95623.28;5060939;28;20551;-72
2022/03/11 08:33:06;;;;;;;13.20;8.88;;;;;;;-1.82;48.73;95615.56;5079283;28;20025;-72
2022/03/11 08:35:32;;;;;;;12.23;8.40;;;;;;;-1.84;48.82;95619.84;5084474;28;20494;-71
2022/03/11 08:37:57;;;;;;;13.75;7.65;;;;;;;-1.68;48.12;95623.75;5073246;28;20028;-71
2022/03/11 08:40:24;;;;;;;39.72;21.90;;;;;;;-1.65;47.91;95626.22;5073720;28;20052;-71
2022/03/11 08:42:53;;;;;;;27.65;14.95;;;;;;;-1.62;47.55;95621.06;5087828;28;20020;-71
2022/03/11 08:45:22;;;;;;;9.13;6.45;;;;;;;-1.60;46.45;95615.94;5088099;28;20040;-72
2022/03/11 08:47:49;;;;;;;8.18;6.35;;;;;;;-1.73;47.11;95615.34;5051450;28;20064;-71
2022/03/11 08:50:14;;;;;;;8.18;6.00;;;;;;;-1.74;46.35;95620.50;5086228;28;20040;-71
2022/03/11 08:52:40;;;;;;;8.65;6.32;;;;;;;-1.76;46.56;95612.06;5089911;28;20031;-72
2022/03/11 08:55:06;;;;;;;12.45;6.70;;;;;;;-1.76;46.49;95607.78;5089367;28;20032;-71
2022/03/11 08:57:31;;;;;;;12.10;7.63;;;;;;;-1.73;46.72;95612.81;5084224;28;20509;-71
2022/03/11 08:59:57;;;;;;;8.73;5.75;;;;;;;-1.65;46.47;95610.09;5070210;28;20032;-71
2022/03/11 09:02:23;;;;;;;8.90;6.13;;;;;;;-1.77;45.18;95610.38;5090052;28;20024;-72
2022/03/11 09:04:48;;;;;;;9.93;5.57;;;;;;;-2.13;45.94;95605.19;5083048;28;20031;-71
2022/03/11 09:07:14;;;;;;;9.05;5.55;;;;;;;-1.95;46.14;95604.81;5075654;28;20023;-71
2022/03/11 09:09:39;;;;;;;8.27;5.82;;;;;;;-2.06;45.77;95607.59;5060809;28;20781;-72
2022/03/11 09:12:04;;;;;;;9.52;6.15;;;;;;;-2.00;46.94;95604.09;5077894;28;20033;-71
2022/03/11 09:14:31;;;;;;;10.02;6.60;;;;;;;-1.94;46.16;95603.94;5058946;28;20107;-72
2022/03/11 09:16:56;;;;;;;9.88;6.55;;;;;;;-1.85;45.11;95597.81;5068624;28;20028;-74
2022/03/11 09:19:22;;;;;;;9.73;6.88;;;;;;;-1.77;45.04;95598.47;5088776;28;20035;-72
2022/03/11 09:21:47;;;;;;;9.15;6.43;;;;;;;-1.74;44.70;95600.94;5086389;28;20094;-72
2022/03/11 09:24:13;;;;;;;12.07;6.30;;;;;;;-1.74;44.67;95603.50;5087297;28;20036;-73
2022/03/11 09:26:39;;;;;;;9.27;6.05;;;;;;;-1.76;44.40;95601.84;5080932;28;20032;-73
2022/03/11 09:29:04;;;;;;;12.15;6.90;;;;;;;-1.55;44.83;95603.94;5089508;28;20034;-72
2022/03/11 09:31:29;;;;;;;12.50;6.55;;;;;;;-1.42;43.44;95607.88;5087875;28;20032;-73
2022/03/11 09:33:55;;;;;;;9.02;5.70;;;;;;;-1.38;42.76;95606.91;5087782;28;20024;-72
2022/03/11 09:36:20;;;;;;;6.88;5.15;;;;;;;-1.31;42.36;95609.31;5087651;28;20043;-72
2022/03/11 09:38:46;;;;;;;8.90;5.13;;;;;;;-1.43;43.21;95598.53;5088833;28;20056;-72
2022/03/11 09:41:12;;;;;;;7.75;5.53;;;;;;;-1.43;43.63;95601.09;5086711;28;20028;-73
2022/03/11 09:43:38;;;;;;;10.50;6.40;;;;;;;-1.29;43.60;95602.47;5085597;28;20039;-72
2022/03/11 09:46:03;;;;;;;10.98;7.38;;;;;;;-1.24;43.42;95598.94;5077877;28;20510;-72
2022/03/11 09:48:29;;;;;;;9.15;6.90;;;;;;;-1.23;42.82;95609.97;5053531;28;20031;-73
2022/03/11 09:50:55;;;;;;;8.35;5.95;;;;;;;-1.28;42.03;95593.94;5078114;28;20037;-73
2022/03/11 09:53:20;;;;;;;8.52;5.90;;;;;;;-1.17;42.08;95599.63;5051649;28;20036;-72
2022/03/11 09:55:46;;;;;;;9.77;6.57;;;;;;;-1.20;44.00;95602.25;5067706;28;20039;-72
2022/03/11 09:58:11;;;;;;;182.38;104.97;;;;;;;-1.10;42.84;95596.06;5089025;28;20039;-72
2022/03/11 10:00:37;;;;;;;19.35;13.43;;;;;;;-1.02;40.61;95595.88;5083937;28;20024;-72
2022/03/11 10:03:03;;;;;;;585.83;310.45;;;;;;;-0.93;40.68;95593.06;5068364;28;20036;-72
2022/03/11 10:05:47;;;;;;;203.88;104.72;;;;;;;-0.82;41.00;95600.47;5056233;28;20021;-72
2022/03/11 10:08:12;;;;;;;41.88;23.65;;;;;;;-0.76;40.31;95590.09;5087064;28;20032;-73
2022/03/11 10:10:38;;;;;;;9.05;5.30;;;;;;;-0.72;38.66;95584.88;5065834;28;20043;-72
2022/03/11 10:13:03;;;;;;;11.90;6.57;;;;;;;-0.88;39.29;95587.88;5087027;28;20161;-72
2022/03/11 10:15:29;;;;;;;9.82;5.50;;;;;;;-1.18;38.67;95587.75;5086392;28;20040;-72
2022/03/11 10:17:54;;;;;;;10.13;6.47;;;;;;;-1.26;39.53;95584.56;5086678;28;20512;-72
2022/03/11 10:20:20;;;;;;;10.68;6.70;;;;;;;-1.22;39.55;95587.00;5066682;28;20041;-72
2022/03/11 10:22:45;;;;;;;12.93;9.80;;;;;;;-1.12;39.26;95590.16;5068821;28;20039;-72
2022/03/11 10:25:21;;;;;;;12.55;9.18;;;;;;;-1.06;39.57;95589.97;5086562;28;20036;-72
2022/03/11 10:28:08;;;;;;;10.75;7.88;;;;;;;-0.96;40.08;95580.41;5067699;28;20043;-72
2022/03/11 10:30:35;;;;;;;10.02;6.28;;;;;;;-0.92;40.51;95584.53;5072109;28;20535;-72
2022/03/11 10:33:03;;;;;;;7.40;5.15;;;;;;;-1.14;40.35;95587.66;5058646;28;20509;-72
2022/03/11 10:35:43;;;;;;;9.70;5.30;;;;;;;-1.37;39.21;95587.34;5066808;28;20055;-72
2022/03/11 10:38:14;;;;;;;10.97;6.63;;;;;;;-1.53;40.58;95583.50;5091171;28;20036;-73
2022/03/11 10:40:49;;;;;;;7.80;5.55;;;;;;;-1.52;40.49;95567.34;5074346;28;20024;-72
2022/03/11 10:43:26;;;;;;;9.02;5.78;;;;;;;-1.39;40.43;95576.38;5094731;28;20409;-72
2022/03/11 10:45:52;;;;;;;8.40;5.45;;;;;;;-1.28;39.33;95573.53;5086140;28;20068;-72
2022/03/11 10:48:18;;;;;;;7.60;5.70;;;;;;;-1.18;39.82;95573.28;5094447;28;20043;-72
2022/03/11 10:50:44;;;;;;;7.93;5.05;;;;;;;-1.06;40.66;95564.47;5092179;28;20127;-73
2022/03/11 10:53:10;;;;;;;7.25;4.75;;;;;;;-0.94;41.03;95565.91;5092315;28;20119;-72
2022/03/11 10:55:39;;;;;;;10.35;5.28;;;;;;;-0.87;40.40;95572.50;5073914;28;20090;-72
2022/03/11 10:58:04;;;;;;;8.85;5.22;;;;;;;-0.85;38.88;95572.47;5074581;28;20039;-72
2022/03/11 11:00:30;;;;;;;11.20;5.63;;;;;;;-0.86;38.64;95565.69;5073514;28;20036;-73
2022/03/11 11:02:58;;;;;;;8.20;5.43;;;;;;;-0.86;38.97;95555.47;5094864;28;20106;-72
2022/03/11 11:05:24;;;;;;;8.70;5.63;;;;;;;-0.82;40.53;95567.28;5059526;28;21170;-72
2022/03/11 11:07:49;;;;;;;9.18;5.63;;;;;;;-0.73;40.08;95557.66;5092672;28;20028;-72
2022/03/11 11:10:16;;;;;;;8.38;5.63;;;;;;;-0.61;39.79;95561.63;5073187;28;20446;-72
2022/03/11 11:12:42;;;;;;;9.27;6.00;;;;;;;-0.52;39.48;95563.09;5060110;28;20031;-73
2022/03/11 11:15:10;;;;;;;8.07;5.10;;;;;;;-0.42;38.27;95553.44;5089460;28;20032;-73
2022/03/11 11:17:40;;;;;;;7.57;5.35;;;;;;;-0.40;37.79;95544.03;5094204;28;20595;-73
2022/03/11 11:20:18;;;;;;;7.28;5.10;;;;;;;-0.35;37.65;95549.84;5072791;28;20051;-72
2022/03/11 11:22:44;;;;;;;9.75;6.03;;;;;;;-0.32;38.39;95542.91;5074105;28;20457;-72
2022/03/11 11:25:10;;;;;;;10.80;6.95;;;;;;;-0.41;38.87;95538.09;5085083;28;20116;-73